Time;durP1;ratioP1;P1;durP2;ratioP2;P2;SDS_P1;SDS_P2;PMS_P1;PMS_P2;Temp;Humidity;BMP_temperature;BMP_pressure;BME280_temperature;BME280_humidity;BME280_pressure;Samples;Min_cycle;Max_cycle;Signal;HPM_P1;HPM_P2
2022/05/19 00:02:19;;;;;;;27.67;18.67;;;;;;;20.17;66.90;101702.59;4978428;28;20034;-57
2022/05/19 00:04:45;;;;;;;26.05;18.20;;;;;;;20.19;67.21;101699.69;4970232;28;20026;-57
2022/05/19 00:07:11;;;;;;;29.77;18.77;;;;;;;20.20;67.07;101685.97;4976971;28;20154;-57
2022/05/19 00:09:36;;;;;;;27.30;17.75;;;;;;;20.18;66.88;101681.84;4970257;28;20141;-57
2022/05/19 00:12:07;;;;;;;23.17;18.25;;;;;;;20.17;67.18;101682.88;4973181;28;20205;-57
2022/05/19 00:14:32;;;;;;;28.58;18.75;;;;;;;20.19;67.04;101678.09;4965560;28;20034;-56
2022/05/19 00:16:58;;;;;;;27.65;19.48;;;;;;;20.10;67.16;101680.22;4969766;28;20109;-57
2022/05/19 00:19:24;;;;;;;31.08;18.80;;;;;;;20.06;67.28;101679.00;4970865;28;20512;-57
2022/05/19 00:21:50;;;;;;;31.38;20.23;;;;;;;20.03;67.52;101674.84;4967618;28;20026;-57
2022/05/19 00:24:16;;;;;;;30.50;19.27;;;;;;;20.04;67.65;101662.19;4970322;28;20034;-57
2022/05/19 00:26:41;;;;;;;29.65;20.58;;;;;;;19.99;67.60;101656.63;4969745;28;20056;-57
2022/05/19 00:29:07;;;;;;;34.40;20.80;;;;;;;20.01;67.80;101659.94;4969543;28;20392;-57
2022/05/19 00:31:33;;;;;;;26.77;20.13;;;;;;;19.99;67.62;101659.31;4970146;28;20081;-56
2022/05/19 00:33:59;;;;;;;30.88;20.75;;;;;;;19.92;67.55;101656.63;4969849;28;20400;-57
2022/05/19 00:36:25;;;;;;;33.75;20.45;;;;;;;19.96;67.57;101662.44;4972995;28;20569;-57
2022/05/19 00:38:50;;;;;;;31.55;21.05;;;;;;;19.94;67.84;101654.53;4968901;28;20532;-57
2022/05/19 00:41:16;;;;;;;29.98;21.33;;;;;;;19.90;67.63;101653.31;4970231;28;20038;-57
2022/05/19 00:43:44;;;;;;;29.30;21.30;;;;;;;19.95;67.84;101653.53;4979180;28;20780;-57
2022/05/19 00:46:12;;;;;;;28.00;21.05;;;;;;;19.91;67.83;101654.13;4968723;28;20432;-56
2022/05/19 00:49:02;;;;;;;28.98;21.33;;;;;;;19.94;67.72;101653.72;4967151;28;20100;-57
2022/05/19 00:51:36;;;;;;;33.05;21.67;;;;;;;19.87;68.13;101652.91;4968499;28;20068;-57
2022/05/19 00:54:05;;;;;;;33.15;22.35;;;;;;;19.87;67.90;101647.50;4970327;28;20027;-57
2022/05/19 00:56:34;;;;;;;33.63;21.88;;;;;;;19.86;67.81;101641.28;4969921;28;20027;-57
2022/05/19 00:59:06;;;;;;;;;;;;;;;19.99;67.84;101635.06;4968777;28;20054;-57
2022/05/19 01:01:34;;;;;;;30.38;21.63;;;;;;;19.75;67.83;101629.31;4967395;28;19921;-57
2022/05/19 01:04:09;;;;;;;29.33;21.60;;;;;;;19.72;68.13;101627.03;4969808;28;20029;-55
2022/05/19 01:06:36;;;;;;;35.53;22.48;;;;;;;19.67;68.23;101629.56;4974274;28;20027;-57
2022/05/19 01:09:08;;;;;;;32.92;22.63;;;;;;;19.61;68.43;101621.47;4965881;28;20038;-56
2022/05/19 01:11:36;;;;;;;30.35;21.77;;;;;;;19.59;68.49;101624.38;4962212;28;20901;-57
2022/05/19 01:14:02;;;;;;;32.78;22.50;;;;;;;19.56;68.49;101615.88;4968264;28;20033;-56
2022/05/19 01:16:46;;;;;;;34.75;23.55;;;;;;;19.55;68.74;101606.16;4965191;28;20155;-56
2022/05/19 01:19:34;;;;;;;35.30;23.90;;;;;;;19.50;68.88;101601.34;4969395;28;20065;-57
2022/05/19 01:22:16;;;;;;;38.63;23.70;;;;;;;19.46;69.15;101598.25;4964937;28;20694;-56
2022/05/19 01:25:12;;;;;;;30.73;22.80;;;;;;;19.45;69.26;101593.09;4966129;28;20034;-55
2022/05/19 01:27:38;;;;;;;35.25;23.73;;;;;;;19.38;69.39;101584.19;4967898;28;20034;-56
2022/05/19 01:30:07;;;;;;;31.98;23.65;;;;;;;19.31;69.48;101583.38;4973679;28;20072;-56
2022/05/19 01:32:32;;;;;;;27.67;23.48;;;;;;;19.27;69.79;101572.19;4970117;28;20062;-56
2022/05/19 01:34:59;;;;;;;38.53;24.25;;;;;;;19.22;69.75;101580.06;4968278;28;20054;-56
2022/05/19 01:37:25;;;;;;;35.20;23.88;;;;;;;19.23;70.07;101567.44;4968718;28;20114;-56
2022/05/19 01:39:54;;;;;;;39.38;24.73;;;;;;;19.19;70.18;101575.09;4973049;28;20125;-57
2022/05/19 01:42:45;;;;;;;31.98;23.55;;;;;;;19.17;70.61;101569.09;4967596;28;21416;-57
2022/05/19 01:46:00;;;;;;;34.70;24.17;;;;;;;19.19;70.89;101570.53;4970615;28;20065;-57
2022/05/19 01:48:36;;;;;;;35.47;24.30;;;;;;;19.13;71.03;101565.19;4925444;29;20032;-57
2022/05/19 01:51:21;;;;;;;36.95;24.75;;;;;;;19.14;71.42;101577.59;4927965;29;20028;-55
2022/05/19 01:54:14;;;;;;;35.20;24.23;;;;;;;19.17;71.45;101569.94;4964382;28;20042;-56
2022/05/19 01:56:53;;;;;;;34.28;24.85;;;;;;;19.15;70.83;101566.63;4974779;28;20045;-57
2022/05/19 01:59:18;;;;;;;;;;;;;;;19.24;70.97;101572.59;4974652;28;20065;-57
2022/05/19 02:01:51;;;;;;;38.30;24.33;;;;;;;19.14;71.01;101564.13;4969410;28;19937;-57
2022/05/19 02:04:26;;;;;;;35.00;25.52;;;;;;;19.11;71.55;101565.38;4965544;28;20388;-55
2022/05/19 02:06:58;;;;;;;37.90;25.63;;;;;;;19.12;71.77;101561.66;4973358;28;20042;-57
2022/05/19 02:09:28;;;;;;;36.65;25.48;;;;;;;19.11;71.60;101557.31;4972194;28;20026;-57
2022/05/19 02:11:56;;;;;;;35.00;25.65;;;;;;;19.04;71.89;101555.63;4965341;28;20400;-56
2022/05/19 02:14:27;;;;;;;34.40;25.70;;;;;;;19.02;71.94;101555.03;4965264;28;20030;-57
2022/05/19 02:16:53;;;;;;;39.38;25.70;;;;;;;19.02;71.66;101555.03;4966274;28;20026;-56
2022/05/19 02:19:24;;;;;;;36.58;25.55;;;;;;;19.03;72.15;101557.50;4971347;28;20038;-57
2022/05/19 02:21:50;;;;;;;39.13;25.23;;;;;;;19.05;72.25;101552.75;4968393;28;20049;-57
2022/05/19 02:24:20;;;;;;;33.80;24.08;;;;;;;19.09;71.94;101558.56;4966050;28;20027;-56
2022/05/19 02:26:45;;;;;;;38.15;24.67;;;;;;;19.09;72.45;101545.09;4966977;28;20043;-57
2022/05/19 02:29:17;;;;;;;34.00;24.45;;;;;;;19.05;72.25;101554.59;4971293;28;20783;-57
2022/05/19 02:31:45;;;;;;;33.58;23.75;;;;;;;19.10;72.55;101561.03;4969278;28;20026;-57
2022/05/19 02:34:11;;;;;;;33.53;24.10;;;;;;;19.11;72.43;101546.53;4970170;28;20042;-57
2022/05/19 02:36:37;;;;;;;33.58;23.85;;;;;;;19.12;72.78;101558.97;4972407;28;20022;-57
2022/05/19 02:39:03;;;;;;;35.58;24.65;;;;;;;19.11;72.71;101560.00;4970099;28;20037;-57
2022/05/19 02:41:28;;;;;;;32.33;25.02;;;;;;;19.12;72.39;101558.97;4969214;28;20031;-57
2022/05/19 02:43:53;;;;;;;34.88;25.25;;;;;;;19.15;72.66;101568.50;4971167;28;20026;-57
2022/05/19 02:46:19;;;;;;;34.25;25.33;;;;;;;19.14;72.34;101567.66;4970427;28;20039;-57
2022/05/19 02:48:44;;;;;;;35.42;24.00;;;;;;;19.17;72.77;101572.63;4967298;28;20022;-57
2022/05/19 02:51:09;;;;;;;35.45;24.42;;;;;;;19.20;72.83;101576.75;4975221;28;20044;-57
2022/05/19 02:53:35;;;;;;;31.80;23.63;;;;;;;19.21;72.56;101574.91;4965012;28;20037;-57
2022/05/19 02:56:00;;;;;;;32.80;24.25;;;;;;;19.22;72.59;101584.63;4965800;28;20463;-57
2022/05/19 02:58:25;;;;;;;33.25;24.38;;;;;;;19.23;72.48;101613.22;4970408;28;20029;-56
2022/05/19 03:00:51;;;;;;;36.00;25.27;;;;;;;19.13;72.82;101724.88;4972021;28;20041;-56
2022/05/19 03:03:17;;;;;;;38.38;25.25;;;;;;;19.05;73.04;101711.59;4971028;28;20027;-56
2022/05/19 03:05:43;;;;;;;41.65;26.23;;;;;;;19.02;73.87;101697.72;4972690;28;20027;-57
2022/05/19 03:08:09;;;;;;;25.33;19.60;;;;;;;19.23;72.62;101720.94;4968331;28;20400;-56
2022/05/19 03:10:37;;;;;;;29.55;21.48;;;;;;;19.43;72.57;101744.16;4970752;28;20031;-56
2022/05/19 03:13:04;;;;;;;30.45;21.88;;;;;;;19.54;71.87;101734.66;4970855;28;20456;-57
2022/05/19 03:15:29;;;;;;;31.00;21.55;;;;;;;19.60;71.72;101731.13;4971260;28;20027;-55
2022/05/19 03:17:55;;;;;;;32.33;22.33;;;;;;;19.60;71.76;101723.03;4970766;28;20011;-57
2022/05/19 03:20:21;;;;;;;33.33;22.55;;;;;;;19.57;71.86;101733.41;4970509;28;20030;-56
2022/05/19 03:22:46;;;;;;;30.60;21.95;;;;;;;19.56;72.08;101729.03;4971930;28;20027;-57
2022/05/19 03:25:12;;;;;;;33.08;22.17;;;;;;;19.56;71.96;101737.13;4971449;28;20523;-56
2022/05/19 03:27:38;;;;;;;27.08;21.27;;;;;;;19.62;72.17;101736.28;4969499;28;20038;-56
2022/05/19 03:30:06;;;;;;;27.80;19.90;;;;;;;19.66;71.98;101742.91;4962720;28;20058;-56
2022/05/19 03:32:32;;;;;;;28.98;20.92;;;;;;;19.68;71.83;101735.47;4968076;28;20115;-57
2022/05/19 03:34:57;;;;;;;32.92;19.33;;;;;;;19.71;71.77;101740.44;4969996;28;20105;-57
2022/05/19 03:37:22;;;;;;;25.35;18.55;;;;;;;19.73;72.16;101738.38;4967529;28;20553;-55
2022/05/19 03:39:48;;;;;;;29.58;19.27;;;;;;;19.73;72.47;101731.13;4971984;28;20120;-55
2022/05/19 03:42:13;;;;;;;29.15;18.50;;;;;;;19.74;72.70;101729.25;4965142;28;20039;-56
2022/05/19 03:44:38;;;;;;;29.33;18.00;;;;;;;19.72;73.32;101717.84;4967951;28;20491;-56
2022/05/19 03:47:05;;;;;;;18.42;14.80;;;;;;;19.67;73.29;101726.56;4963872;28;20034;-56
2022/05/19 03:49:30;;;;;;;25.42;15.80;;;;;;;19.70;73.85;101726.16;4967990;28;20027;-54
2022/05/19 03:51:56;;;;;;;23.52;15.73;;;;;;;19.68;74.39;101740.88;4972951;28;20197;-57
2022/05/19 03:54:21;;;;;;;20.70;14.95;;;;;;;19.60;74.89;101743.75;4967904;28;20042;-56
2022/05/19 03:56:46;;;;;;;22.88;14.32;;;;;;;19.56;75.19;101737.13;4968140;28;20484;-55
2022/05/19 03:59:12;;;;;;;19.02;14.10;;;;;;;19.57;75.08;101744.19;4970915;28;20042;-57
2022/05/19 04:01:37;;;;;;;19.48;14.52;;;;;;;19.56;75.31;101732.56;4970426;28;20034;-56
2022/05/19 04:04:03;;;;;;;20.52;14.82;;;;;;;19.57;75.98;101749.56;4970815;28;20019;-55
2022/05/19 04:06:29;;;;;;;22.30;16.05;;;;;;;19.53;76.54;101733.00;4970694;28;20031;-56
2022/05/19 04:08:54;;;;;;;20.25;13.82;;;;;;;19.55;76.34;101741.69;4969179;28;20444;-56
2022/05/19 04:11:19;;;;;;;19.58;14.32;;;;;;;19.49;76.53;101754.09;4970578;28;20078;-56
2022/05/19 04:13:45;;;;;;;18.83;14.80;;;;;;;19.41;76.86;101746.22;4970944;28;20026;-57
2022/05/19 04:16:10;;;;;;;20.48;15.80;;;;;;;19.39;77.64;101759.09;4969741;28;20035;-57
2022/05/19 04:18:36;;;;;;;20.23;15.40;;;;;;;19.37;77.76;101750.38;4970101;28;20169;-56
2022/05/19 04:21:01;;;;;;;22.52;14.88;;;;;;;19.43;77.68;101749.53;4968228;28;20026;-57
2022/05/19 04:23:27;;;;;;;19.50;14.68;;;;;;;19.41;77.58;101758.88;4967947;28;20042;-56
2022/05/19 04:25:52;;;;;;;20.90;15.00;;;;;;;19.33;78.10;101751.81;4969463;28;20105;-56
2022/05/19 04:28:17;;;;;;;18.83;14.48;;;;;;;19.31;78.46;101759.25;4971674;28;20484;-55
2022/05/19 04:30:43;;;;;;;24.58;15.13;;;;;;;19.30;78.27;101749.53;4974063;28;20054;-57
2022/05/19 04:33:09;;;;;;;17.40;14.65;;;;;;;19.33;78.85;101753.66;4965345;28;20153;-57
2022/05/19 04:35:34;;;;;;;21.27;15.38;;;;;;;19.30;78.81;101754.91;4966483;28;20026;-56
2022/05/19 04:38:05;;;;;;;17.85;14.93;;;;;;;19.28;78.87;101761.53;4971845;28;20031;-56
2022/05/19 04:40:31;;;;;;;21.10;14.63;;;;;;;19.24;79.33;101750.34;4971843;28;20133;-56
2022/05/19 04:42:56;;;;;;;24.92;14.90;;;;;;;19.19;79.15;101755.53;4970562;28;20161;-56
2022/05/19 04:45:21;;;;;;;18.63;13.15;;;;;;;19.22;79.46;101738.97;4969988;28;20067;-54
2022/05/19 04:47:47;;;;;;;17.05;13.68;;;;;;;19.22;78.93;101741.66;4968414;28;20027;-57
2022/05/19 04:50:13;;;;;;;18.38;13.55;;;;;;;19.25;78.93;101746.63;4969935;28;20030;-55
2022/05/19 04:52:39;;;;;;;19.70;13.05;;;;;;;19.23;79.21;101751.38;4970533;28;20082;-57
2022/05/19 04:55:06;;;;;;;19.08;13.30;;;;;;;19.24;79.30;101752.22;4970311;28;20023;-55
2022/05/19 04:57:31;;;;;;;17.75;13.52;;;;;;;19.28;79.55;101748.91;4968652;28;20070;-57
2022/05/19 04:59:56;;;;;;;16.73;12.95;;;;;;;19.26;79.11;101744.75;4967836;28;20126;-56
2022/05/19 05:02:22;;;;;;;18.02;11.52;;;;;;;19.27;79.33;101730.25;4969222;28;20061;-55
2022/05/19 05:04:47;;;;;;;13.50;11.30;;;;;;;19.30;78.98;101740.63;4970292;28;20042;-54
2022/05/19 05:07:12;;;;;;;17.13;11.60;;;;;;;19.31;78.81;101740.41;4969303;28;20027;-56
2022/05/19 05:09:37;;;;;;;12.32;10.32;;;;;;;19.32;78.85;101731.28;4969675;28;20042;-56
2022/05/19 05:12:03;;;;;;;14.52;9.38;;;;;;;19.32;79.17;101731.28;4969936;28;20484;-56
2022/05/19 05:14:29;;;;;;;9.23;7.97;;;;;;;19.25;78.79;101727.78;4968643;28;20034;-56
2022/05/19 05:16:55;;;;;;;9.07;7.55;;;;;;;19.25;78.67;101724.25;4969292;28;20027;-56
2022/05/19 05:19:22;;;;;;;16.05;7.70;;;;;;;19.25;78.76;101746.63;4969482;28;20503;-56
2022/05/19 05:21:59;;;;;;;10.20;7.57;;;;;;;19.23;78.23;101753.25;4970004;28;20033;-55
2022/05/19 05:24:25;;;;;;;14.20;7.90;;;;;;;19.19;78.21;101750.13;4969482;28;20057;-57
2022/05/19 05:26:50;;;;;;;12.32;7.07;;;;;;;19.18;78.49;101743.09;4969045;28;20138;-56
2022/05/19 05:29:16;;;;;;;16.13;8.00;;;;;;;19.18;78.65;101730.47;4968339;28;20543;-56
2022/05/19 05:31:41;;;;;;;15.70;7.70;;;;;;;19.19;78.52;101704.38;4969044;28;20043;-55
2022/05/19 05:34:07;;;;;;;16.10;8.30;;;;;;;19.18;78.81;101686.53;4969784;28;20026;-57
2022/05/19 05:36:32;;;;;;;13.65;6.43;;;;;;;19.15;79.19;101665.41;4968918;28;20495;-55
2022/05/19 05:38:57;;;;;;;15.55;6.43;;;;;;;19.13;79.31;101638.72;4967786;28;20061;-55
2022/05/19 05:41:25;;;;;;;16.13;6.35;;;;;;;19.09;79.31;101602.47;4965197;28;20072;-54
2022/05/19 05:43:50;;;;;;;9.45;5.30;;;;;;;19.07;79.65;101604.50;4968017;28;20102;-55
2022/05/19 05:46:16;;;;;;;9.98;5.97;;;;;;;18.99;79.39;101585.88;4965344;28;20126;-56
2022/05/19 05:48:46;;;;;;;9.55;5.47;;;;;;;18.92;79.51;101595.84;4965512;28;20411;-55
2022/05/19 05:51:13;;;;;;;7.47;5.55;;;;;;;18.93;80.00;101602.88;4963557;28;20177;-56
2022/05/19 05:53:41;;;;;;;8.27;5.97;;;;;;;18.91;80.21;101606.81;4971772;28;20026;-56
2022/05/19 05:56:10;;;;;;;11.52;6.35;;;;;;;18.95;79.97;101599.97;4969443;28;20033;-55
2022/05/19 05:58:35;;;;;;;;;;;;;;;19.05;79.58;101595.81;4971509;28;20188;-55
2022/05/19 06:01:02;;;;;;;8.68;6.07;;;;;;;18.94;79.23;101606.38;4964639;28;20025;-55
2022/05/19 06:03:28;;;;;;;13.23;6.88;;;;;;;18.94;79.17;101603.69;4962991;28;20037;-54
2022/05/19 06:05:53;;;;;;;11.07;6.43;;;;;;;18.92;79.23;101605.78;4965850;28;20035;-56
2022/05/19 06:08:18;;;;;;;9.90;6.65;;;;;;;18.92;79.19;101589.63;4967550;28;20033;-56
2022/05/19 06:10:45;;;;;;;14.40;6.93;;;;;;;18.88;79.36;101598.13;4969141;28;20613;-56
2022/05/19 06:13:11;;;;;;;16.15;7.70;;;;;;;18.81;79.62;101610.75;4968815;28;20105;-54
2022/05/19 06:15:37;;;;;;;11.05;6.75;;;;;;;18.87;79.78;101626.06;4969231;28;20035;-55
2022/05/19 06:18:02;;;;;;;10.27;6.82;;;;;;;18.91;80.09;101631.03;4965848;28;21675;-56
2022/05/19 06:20:27;;;;;;;17.35;7.80;;;;;;;18.86;80.48;101629.78;4971251;28;20034;-56
2022/05/19 06:22:53;;;;;;;14.32;7.90;;;;;;;18.87;80.78;101644.91;4971411;28;20062;-56
2022/05/19 06:25:21;;;;;;;10.57;7.65;;;;;;;18.87;80.88;101652.16;4968446;28;20081;-55
2022/05/19 06:27:49;;;;;;;12.35;7.63;;;;;;;18.90;81.11;101646.34;4963452;28;20039;-57
2022/05/19 06:30:15;;;;;;;11.88;7.32;;;;;;;18.93;81.44;101650.50;4961744;28;20035;-54
2022/05/19 06:32:42;;;;;;;9.65;7.03;;;;;;;18.92;81.20;101652.34;4967528;28;20026;-55
2022/05/19 06:35:09;;;;;;;11.63;7.70;;;;;;;18.97;81.23;101638.28;4976047;28;20022;-55
2022/05/19 06:37:34;;;;;;;13.15;8.23;;;;;;;19.07;81.57;101641.38;4970691;28;20037;-55
2022/05/19 06:40:00;;;;;;;12.23;8.30;;;;;;;19.09;81.99;101625.88;4975537;28;20015;-56
2022/05/19 06:42:26;;;;;;;11.73;7.80;;;;;;;19.21;81.76;101639.53;4967208;28;20030;-56
2022/05/19 06:44:51;;;;;;;9.18;7.68;;;;;;;19.25;81.71;101632.69;4971637;28;20154;-55
2022/05/19 06:47:17;;;;;;;15.73;8.55;;;;;;;19.31;81.18;101642.63;4971870;28;20034;-56
2022/05/19 06:49:44;;;;;;;10.65;8.65;;;;;;;19.41;81.22;101627.69;4972233;28;20027;-56
2022/05/19 06:52:13;;;;;;;12.20;7.97;;;;;;;19.46;81.16;101635.97;4971616;28;20033;-55
2022/05/19 06:54:38;;;;;;;;;;;;;;;19.66;80.44;101630.59;4966479;28;20019;-56
2022/05/19 06:57:03;;;;;;;11.20;8.20;;;;;;;19.68;81.01;101628.50;4970529;28;20334;-56
2022/05/19 06:59:29;;;;;;;14.25;8.45;;;;;;;19.73;81.15;101623.31;4971353;28;20286;-56
2022/05/19 07:01:54;;;;;;;11.30;9.15;;;;;;;19.73;80.57;101619.78;4971206;28;20023;-56
2022/05/19 07:04:19;;;;;;;15.88;9.90;;;;;;;19.79;80.71;101619.75;4970629;28;20558;-55
2022/05/19 07:06:45;;;;;;;16.92;10.05;;;;;;;19.86;80.13;101605.44;4968098;28;20038;-56
2022/05/19 07:09:11;;;;;;;14.98;9.82;;;;;;;19.86;79.96;101608.94;4970953;28;20031;-56
2022/05/19 07:11:36;;;;;;;14.70;10.07;;;;;;;19.89;79.89;101603.13;4965124;28;20027;-56
2022/05/19 07:14:06;;;;;;;12.85;10.00;;;;;;;19.94;79.49;101616.78;4961402;28;20035;-56
2022/05/19 07:16:32;;;;;;;16.50;9.80;;;;;;;19.94;79.34;101611.41;4973250;28;20461;-56
2022/05/19 07:21:43;;;;;;;18.50;10.88;;;;;;;19.95;78.99;101602.28;4969745;28;20570;-56
2022/05/19 07:24:16;;;;;;;16.50;10.88;;;;;;;20.00;78.74;101598.97;4971964;28;20026;-56
2022/05/19 07:26:46;;;;;;;14.13;11.45;;;;;;;20.03;78.59;101607.44;4970733;28;20028;-56
2022/05/19 07:29:12;;;;;;;18.00;11.70;;;;;;;20.06;78.94;101596.22;4971244;28;20440;-56
2022/05/19 07:31:38;;;;;;;15.60;12.05;;;;;;;20.14;78.77;101592.44;4971179;28;20499;-56
2022/05/19 07:34:10;;;;;;;15.95;12.73;;;;;;;20.18;78.86;101595.53;4977518;28;20391;-55
2022/05/19 07:36:36;;;;;;;16.05;11.80;;;;;;;20.26;78.85;101598.00;4969051;28;20026;-57
2022/05/19 07:39:03;;;;;;;15.40;12.50;;;;;;;20.32;78.90;101599.81;4971809;28;20996;-56
2022/05/19 07:41:30;;;;;;;17.45;12.40;;;;;;;20.38;78.53;101599.78;4976514;28;20071;-56
2022/05/19 07:43:57;;;;;;;15.85;12.20;;;;;;;20.50;78.62;101593.72;4976317;28;20029;-56
2022/05/19 07:46:26;;;;;;;19.42;12.38;;;;;;;20.58;78.53;101599.69;4973224;28;20027;-57
2022/05/19 07:48:55;;;;;;;14.57;11.50;;;;;;;20.68;77.64;101597.34;4967664;28;20042;-56
2022/05/19 07:51:27;;;;;;;15.38;11.40;;;;;;;20.72;77.02;101619.31;4968603;28;20045;-56
2022/05/19 07:53:53;;;;;;;17.08;11.60;;;;;;;20.91;76.97;101625.63;4970628;28;20029;-56
2022/05/19 07:56:19;;;;;;;14.95;11.30;;;;;;;21.02;76.76;101624.91;4969676;28;20436;-55
2022/05/19 07:58:48;;;;;;;13.15;11.15;;;;;;;21.15;76.73;101627.50;4967586;28;20027;-56
2022/05/19 08:01:14;;;;;;;15.55;11.55;;;;;;;21.26;75.99;101628.66;4969381;28;20031;-56
2022/05/19 08:03:40;;;;;;;14.77;12.40;;;;;;;21.38;75.44;101631.47;4970136;28;20033;-55
2022/05/19 08:06:07;;;;;;;15.30;11.90;;;;;;;21.41;74.56;101631.03;4970308;28;20022;-56
2022/05/19 08:08:36;;;;;;;15.48;12.43;;;;;;;21.46;73.38;101629.31;4964764;28;20595;-56
2022/05/19 08:11:02;;;;;;;19.42;13.30;;;;;;;21.53;73.21;101632.78;4965950;28;20489;-57
2022/05/19 08:16:11;;;;;;;16.92;14.73;;;;;;;21.72;72.44;101617.41;4969006;28;20527;-54
2022/05/19 08:18:37;;;;;;;18.55;15.15;;;;;;;21.77;72.04;101614.84;4966988;28;20026;-56
2022/05/19 08:21:05;;;;;;;24.17;16.30;;;;;;;21.85;71.64;101603.72;4968048;28;20034;-55
2022/05/19 08:23:36;;;;;;;19.65;17.00;;;;;;;21.93;71.28;101614.22;4959079;28;20035;-55
2022/05/19 08:26:03;;;;;;;20.42;17.60;;;;;;;21.93;70.48;101597.16;4960738;28;20038;-56
2022/05/19 08:28:30;;;;;;;20.80;17.27;;;;;;;22.02;70.35;101598.53;4962058;28;20121;-54
2022/05/19 08:31:02;;;;;;;20.42;17.02;;;;;;;22.13;70.43;101603.19;4964862;28;20691;-57
2022/05/19 08:33:28;;;;;;;24.65;17.30;;;;;;;22.28;70.12;101597.38;4966417;28;20054;-55
2022/05/19 08:35:54;;;;;;;26.50;17.63;;;;;;;22.45;70.14;101598.34;4969439;28;20464;-56
2022/05/19 08:38:20;;;;;;;21.20;17.40;;;;;;;22.54;69.59;101596.13;4968261;28;20022;-54
2022/05/19 08:41:08;;;;;;;21.52;16.27;;;;;;;22.72;68.94;101598.78;4970042;28;20118;-56
2022/05/19 08:43:51;;;;;;;19.63;15.13;;;;;;;22.76;67.72;101599.13;4970454;28;20062;-55
2022/05/19 08:46:23;;;;;;;17.75;14.65;;;;;;;22.86;67.18;101596.72;4962889;28;20041;-55
2022/05/19 08:48:55;;;;;;;18.02;13.68;;;;;;;22.97;67.01;101593.19;4968925;28;20685;-56
2022/05/19 08:51:29;;;;;;;14.10;12.52;;;;;;;23.06;66.18;101586.38;4970002;28;20631;-57
2022/05/19 08:54:02;;;;;;;14.68;11.88;;;;;;;23.14;64.71;101580.63;4966463;28;20026;-56
2022/05/19 08:57:13;;;;;;;16.92;11.35;;;;;;;23.25;63.93;101589.78;4969189;28;20026;-56
2022/05/19 08:59:50;;;;;;;15.73;11.73;;;;;;;23.40;64.04;101592.00;4969388;28;20469;-56
2022/05/19 09:02:23;;;;;;;17.80;12.00;;;;;;;23.42;63.08;101588.03;4968850;28;20030;-56
2022/05/19 09:04:55;;;;;;;13.52;12.13;;;;;;;23.59;63.45;101595.44;4968342;28;20056;-56
2022/05/19 09:07:58;;;;;;;16.77;11.82;;;;;;;23.69;62.35;101599.19;4968340;28;20620;-55
2022/05/19 09:10:38;;;;;;;16.67;12.00;;;;;;;23.75;61.67;101600.13;4967943;28;20035;-55
2022/05/19 09:13:15;;;;;;;16.40;11.85;;;;;;;23.85;61.66;101592.19;4969282;28;20107;-56
2022/05/19 09:15:40;;;;;;;14.30;11.48;;;;;;;24.06;61.89;101575.25;4969426;28;20038;-57
2022/05/19 09:18:06;;;;;;;15.82;11.82;;;;;;;24.15;61.12;101581.13;4968973;28;20365;-56
2022/05/19 09:20:37;;;;;;;15.15;9.90;;;;;;;24.19;60.51;101570.59;4970464;28;20147;-54
2022/05/19 09:23:06;;;;;;;17.88;10.00;;;;;;;24.14;59.78;101571.34;4967766;28;20026;-56
2022/05/19 09:25:33;;;;;;;;;;;;;;;24.21;60.20;101569.28;4969405;28;20043;-57
2022/05/19 09:28:00;;;;;;;14.77;9.75;;;;;;;24.04;59.61;101571.16;4968217;28;19918;-56
2022/05/19 09:30:59;;;;;;;13.38;8.88;;;;;;;24.01;58.81;101564.31;4969934;28;20027;-55
2022/05/19 09:33:34;;;;;;;9.93;8.60;;;;;;;24.10;59.21;101572.88;4957481;28;20031;-55
2022/05/19 09:36:11;;;;;;;11.60;8.63;;;;;;;24.06;58.61;101583.41;4968751;28;20023;-56
2022/05/19 09:38:44;;;;;;;14.15;8.60;;;;;;;24.01;58.52;101586.03;4968051;28;20023;-57
2022/05/19 09:41:28;;;;;;;11.82;8.50;;;;;;;24.01;57.95;101586.03;4969812;28;20480;-56
2022/05/19 09:43:56;;;;;;;11.55;8.15;;;;;;;24.00;58.12;101586.28;4970205;28;20106;-56
2022/05/19 09:46:22;;;;;;;11.73;8.23;;;;;;;23.99;58.04;101585.41;4972566;28;20556;-57
2022/05/19 09:49:03;;;;;;;14.68;8.90;;;;;;;24.01;57.83;101586.03;4970989;28;20027;-57
2022/05/19 09:51:43;;;;;;;9.40;8.07;;;;;;;24.08;58.60;101575.84;4973626;28;20472;-55
2022/05/19 09:54:13;;;;;;;13.25;8.10;;;;;;;24.18;58.76;101579.81;4972630;28;20023;-56
2022/05/19 09:56:50;;;;;;;11.68;7.85;;;;;;;24.37;58.79;101578.56;4972974;28;20023;-57
2022/05/19 09:59:34;;;;;;;11.95;8.10;;;;;;;24.54;58.67;101573.97;4973268;28;20027;-57
2022/05/19 10:02:14;;;;;;;10.50;7.55;;;;;;;24.79;58.51;101575.47;4966648;28;20028;-55
2022/05/19 10:04:48;;;;;;;10.07;7.93;;;;;;;24.94;58.09;101564.84;4973472;28;20114;-55
2022/05/19 10:07:24;;;;;;;10.13;8.40;;;;;;;24.90;56.97;101563.72;4972443;28;20444;-56
2022/05/19 10:09:50;;;;;;;11.55;8.45;;;;;;;25.02;56.51;101559.03;4971841;28;20109;-55
2022/05/19 10:12:24;;;;;;;10.30;7.38;;;;;;;25.15;56.68;101552.41;4973132;28;20030;-56
2022/05/19 10:14:58;;;;;;;11.50;8.00;;;;;;;25.27;55.71;101542.25;4973041;28;20042;-57
2022/05/19 10:17:29;;;;;;;12.88;7.40;;;;;;;25.38;55.37;101530.44;4972513;28;20047;-56
2022/05/19 10:20:04;;;;;;;11.45;6.93;;;;;;;25.42;55.30;101528.03;4971048;28;20054;-56
2022/05/19 10:22:37;;;;;;;9.10;6.65;;;;;;;25.58;55.72;101510.84;4971427;28;20038;-61
2022/05/19 10:25:11;;;;;;;11.80;7.25;;;;;;;25.53;54.51;101519.75;4972071;28;20038;-56
2022/05/19 10:33:35;;;;;;;12.75;7.63;;;;;;;25.59;53.69;101507.84;4969376;28;20096;-56
2022/05/19 10:36:06;;;;;;;12.43;7.60;;;;;;;25.60;54.00;101509.50;4955211;28;20018;-55
2022/05/19 10:38:43;;;;;;;11.00;7.80;;;;;;;25.70;54.00;101505.28;4963518;28;20059;-56
2022/05/19 10:41:34;;;;;;;13.10;7.22;;;;;;;25.76;53.92;101507.00;4970269;28;20030;-53
2022/05/19 10:44:18;;;;;;;8.48;7.05;;;;;;;25.89;54.39;101512.84;4966058;28;20034;-55
2022/05/19 10:47:22;;;;;;;13.40;7.80;;;;;;;25.96;53.32;101520.81;4970071;28;20034;-55
2022/05/19 10:50:25;;;;;;;12.00;7.20;;;;;;;26.10;53.67;101513.88;4972707;28;20511;-56
2022/05/19 10:53:12;;;;;;;10.88;6.55;;;;;;;26.19;54.05;101512.34;4971522;28;20101;-56
2022/05/19 10:56:01;;;;;;;8.73;6.45;;;;;;;26.27;53.73;101511.03;4966867;28;20065;-56
2022/05/19 10:59:11;;;;;;;9.82;6.72;;;;;;;26.40;53.82;101513.38;4970893;28;20029;-56
2022/05/19 11:01:51;;;;;;;13.45;6.50;;;;;;;26.37;54.13;101515.78;4973654;28;20184;-56
2022/05/19 11:04:25;;;;;;;12.15;6.82;;;;;;;26.30;53.75;101520.59;4965790;28;20041;-55
2022/05/19 11:07:12;;;;;;;13.25;5.22;;;;;;;26.16;53.36;101510.13;4962461;28;20519;-56
2022/05/19 11:09:50;;;;;;;7.40;4.50;;;;;;;26.11;52.74;101514.72;4967354;28;20463;-56
2022/05/19 11:12:34;;;;;;;;;;;;;;;26.21;53.11;101507.44;4965771;28;20424;-57
2022/05/19 11:15:09;;;;;;;6.38;4.43;;;;;;;25.99;52.78;101509.41;4965855;28;20306;-55
2022/05/19 11:18:00;;;;;;;8.45;4.70;;;;;;;25.94;53.37;101499.28;4963010;28;20023;-57
2022/05/19 11:20:53;;;;;;;7.28;4.20;;;;;;;25.87;53.06;101493.25;4965627;28;20586;-56
2022/05/19 11:23:28;;;;;;;14.43;4.65;;;;;;;25.76;53.21;101485.22;4965083;28;20035;-55
2022/05/19 11:26:26;;;;;;;7.47;4.40;;;;;;;25.69;52.50;101493.56;4967061;28;20026;-56
2022/05/19 11:29:25;;;;;;;7.07;4.35;;;;;;;25.61;52.23;101513.88;4962936;28;20040;-54
2022/05/19 11:32:12;;;;;;;7.80;4.80;;;;;;;25.44;52.10;101534.84;4965481;28;20022;-56
2022/05/19 11:34:56;;;;;;;5.47;4.40;;;;;;;25.27;51.79;101542.25;4971692;28;20069;-56
2022/05/19 11:37:33;;;;;;;8.95;4.70;;;;;;;25.16;51.60;101543.22;4968604;28;20031;-54
2022/05/19 11:40:20;;;;;;;7.95;4.78;;;;;;;25.02;53.56;101569.91;4969809;28;20039;-56
2022/05/19 11:42:54;;;;;;;9.30;5.57;;;;;;;24.73;56.12;101669.66;4966632;28;20098;-56